The Official Home Page Of The Professional Rodeo Cowboys Association PRCA RAM WORLD STANDINGS
ProRodeoTv.Com



Official Gear Of The PRCA

PRCA Stock Statistics

SEARCH BY:
Stock Rodeo Contestant Stock Contractor

Brett Custer

EVENT:
Unofficial results reflect placement at time of Web posting and can change.

SEASON BREAKDOWN

Season Attempts Qual Rides Re-rides Ride %
2018 93 28 0 30.11 %
2017 62 13 0 20.97 %
Totals 155 41 0 0.00 %

RODEO DETAIL

Date Location Rodeo SC Brand Ride Comments Stock Score Contestant Score
9/16/2018 Albuquerque, NM New Mexico State Fair & Rodeo RH 32 0.00 20.00 / 20.50 0.00 / 0.00
9/13/2018 Pendleton, OR Pendleton Round-Up SA 2107 74.00 19.00 / 18.50 18.00 / 18.50
9/8/2018 Lewiston, ID Lewiston Roundup SA 402 84.00 21.00 / 20.50 21.50 / 21.00
9/7/2018 Fort Madison, IA Tri-State Rodeo CC 164Y 0.00 19.00 / 19.00 0.00 / 0.00
9/5/2018 Lewiston, ID Division 2 Qualifying Event Xtreme Bulls NW W57 0.00 23.00 / 22.50 0.00 / 0.00
9/4/2018 Blackfoot, ID Gem State Classic Pro Rodeo DH 537C 0.00 21.50 / 20.00 0.00 / 0.00
9/3/2018 Lakeview, OR Lake County Round-up JD 24 0.00 20.50 / 19.50 0.00 / 0.00
9/2/2018 Walla Walla, WA Walla Walla Frontier Days BR 26 0.00 20.00 / 20.00 0.00 / 0.00
9/2/2018 Ellensburg, WA Ellensburg Rodeo OB 102 0.00 23.00 / 22.00 0.00 / 0.00
9/1/2018 Ellensburg, WA Ellensburg Rodeo Xtreme Bulls Tour Finale OB 017 0.00 22.50 / 22.00 0.00 / 0.00
8/31/2018 Elk City, OK Elk City Rodeo Of Champions BU R21 0.00 21.50 / 21.00 0.00 / 0.00
8/26/2018 Pueblo, CO Colorado State Fair & Rodeo FL 3169 0.00 21.50 / 22.50 0.00 / 0.00
8/25/2018 San Juan Capistrano, CA Rancho Mission Viejo Rodeo RO 3962 82.00 21.00 / 19.50 21.00 / 20.50
7/25/2018 Cheyenne, WY Cheyenne Frontier Days DK 8 84.00 20.50 / 20.00 22.00 / 21.50
7/21/2018 Spanish Fork, UT Fiesta Days Rodeo FR B94 0.00 21.00 / 22.00 0.00 / 0.00
7/20/2018 Salinas, CA California Rodeo Salinas WR 211 0.00 21.00 / 20.50 0.00 / 0.00
7/14/2018 Colorado Springs, CO Pikes Peak or Bust Rodeo FL 4101 0.00 21.50 / 23.50 0.00 / 0.00
7/12/2018 Laramie, WY Laramie Jubilee Days Xtreme Bulls BH 130 0.00 19.00 / 21.00 0.00 / 0.00
7/11/2018 Colorado Springs, CO Pikes Peak or Bust Rodeo FL 3102 86.50 21.50 / 21.00 22.00 / 22.00
7/10/2018 Casper, WY Central Wyoming Fair & PRCA Rodeo BF 820 0.00 22.00 / 22.50 0.00 / 0.00
7/9/2018 Estes Park, CO Rooftop Rodeo FL 538 0.00 22.00 / 23.00 0.00 / 0.00
7/8/2018 Isanti, MN Isanti Firefighters Xtreme Bulls DB 1044 0.00 17.00 / 20.00 0.00 / 0.00
7/7/2018 Isanti, MN 42nd Annual Isanti Firefighters Rodeo CP B-J3 83.50 20.50 / 20.00 22.00 / 21.00
7/5/2018 St. Paul, OR St. Paul Rodeo TB 43 0.00 20.50 / 21.50 0.00 / 0.00
7/5/2018 Park Rapids, MN 40th Annual Headwaters Xtreme Bulls DB 554 85.00 20.50 / 21.00 21.50 / 22.00
Page of 4
Per Page
 
 
 
PRCA National Sponsors
MGM Grand Polaris Ranger American Quarter Horse Association Cinch Jeans
Copyright © 2018 Professional Rodeo Cowboys Association. All rights reserved. No portion of ProRodeo.com may be duplicated, redistributed or manipulated in any form. By accessing any information beyond this page, you agree to abide by the Terms of Use.
PRCA Wrangler National Finals Rodeo Wrangler ProRodeo Tour Finale Presented by Justin Boots Xtreme Bulls RAM National Circuit Finals Rodeo ProRodeo Gear ProRodeo Tour